Time;durP1;ratioP1;P1;durP2;ratioP2;P2;SDS_P1;SDS_P2;PMS_P1;PMS_P2;Temp;Humidity;BMP_temperature;BMP_pressure;BME280_temperature;BME280_humidity;BME280_pressure;Samples;Min_cycle;Max_cycle;Signal;HPM_P1;HPM_P2
2022/03/16 00:02:09;;;;;;;3.72;1.70;;;23.00;99.90;;;;;;5062402;28;20378;-85
2022/03/16 00:04:36;;;;;;;2.38;1.38;;;22.90;99.90;;;;;;5067253;28;20430;-76
2022/03/16 00:07:03;;;;;;;3.42;1.98;;;23.20;99.90;;;;;;5067356;28;20368;-80
2022/03/16 00:09:30;;;;;;;3.85;2.58;;;23.60;99.90;;;;;;5067495;28;20409;-77
2022/03/16 00:11:57;;;;;;;3.97;2.40;;;23.70;99.90;;;;;;5067339;28;20439;-78
2022/03/16 00:14:24;;;;;;;3.35;2.55;;;23.70;99.90;;;;;;5067405;28;20375;-76
2022/03/16 00:16:51;;;;;;;4.38;2.60;;;23.70;99.90;;;;;;5067179;28;20375;-78
2022/03/16 00:19:17;;;;;;;3.70;2.30;;;23.80;99.90;;;;;;5067325;28;20397;-78
2022/03/16 00:21:44;;;;;;;3.20;2.20;;;23.90;99.90;;;;;;5067786;28;20486;-79
2022/03/16 00:24:11;;;;;;;3.03;2.20;;;23.80;99.90;;;;;;5067056;28;20734;-79
2022/03/16 00:26:39;;;;;;;4.43;1.98;;;23.60;99.90;;;;;;5049133;28;20423;-79
2022/03/16 00:29:06;;;;;;;3.35;1.50;;;23.80;99.90;;;;;;5067004;28;20386;-81
2022/03/16 00:31:34;;;;;;;3.55;1.40;;;24.00;99.90;;;;;;5067039;28;20726;-77
2022/03/16 00:34:02;;;;;;;3.53;1.35;;;24.40;99.90;;;;;;5067212;28;20402;-88
2022/03/16 00:36:29;;;;;;;3.58;1.50;;;24.70;99.90;;;;;;5067275;28;20424;-79
2022/03/16 00:38:56;;;;;;;2.58;1.35;;;24.40;99.90;;;;;;5067389;28;20439;-83
2022/03/16 00:41:23;;;;;;;4.07;1.40;;;24.30;99.90;;;;;;5049326;28;20851;-81
2022/03/16 00:43:50;;;;;;;5.20;1.50;;;24.30;99.90;;;;;;5067300;28;20418;-78
2022/03/16 00:46:17;;;;;;;5.30;1.60;;;24.50;99.90;;;;;;5066235;28;20461;-79
2022/03/16 00:48:44;;;;;;;2.97;1.40;;;24.60;99.90;;;;;;5065543;28;20750;-77
2022/03/16 00:51:12;;;;;;;3.35;1.50;;;24.60;99.90;;;;;;5066658;28;20386;-81
2022/03/16 00:53:40;;;;;;;4.25;1.42;;;24.80;99.90;;;;;;5066856;28;20389;-78
2022/03/16 00:56:09;;;;;;;2.88;1.30;;;25.10;99.90;;;;;;5066569;28;20370;-81
2022/03/16 00:58:36;;;;;;;5.60;1.60;;;25.40;99.90;;;;;;5066845;28;20366;-77
2022/03/16 01:01:05;;;;;;;3.13;1.42;;;25.80;99.90;;;;;;5067097;28;20408;-81
2022/03/16 01:03:33;;;;;;;5.60;1.65;;;26.20;99.90;;;;;;5066786;28;20385;-77
2022/03/16 01:06:01;;;;;;;3.80;1.40;;;26.20;99.90;;;;;;5066732;28;20387;-78
2022/03/16 01:08:28;;;;;;;4.15;1.52;;;26.40;99.90;;;;;;5066988;28;20374;-85
2022/03/16 01:10:55;;;;;;;4.15;1.52;;;26.60;99.90;;;;;;5067100;28;20378;-84
2022/03/16 01:13:22;;;;;;;4.55;1.73;;;26.70;99.90;;;;;;5067905;28;20377;-82
2022/03/16 01:15:49;;;;;;;4.18;1.50;;;26.90;99.90;;;;;;5068121;28;20417;-77
2022/03/16 01:18:16;;;;;;;4.90;1.67;;;26.30;99.90;;;;;;5067236;28;20486;-82
2022/03/16 01:20:43;;;;;;;5.43;1.80;;;26.00;99.90;;;;;;5066732;28;20390;-81
2022/03/16 01:23:10;;;;;;;4.05;1.42;;;25.70;99.90;;;;;;5066554;28;20371;-80
2022/03/16 01:25:37;;;;;;;5.22;1.60;;;25.70;99.90;;;;;;5066704;28;20396;-82
2022/03/16 01:28:04;;;;;;;3.85;1.67;;;25.60;99.90;;;;;;5066474;28;20400;-80
2022/03/16 01:30:31;;;;;;;3.78;1.65;;;25.70;99.90;;;;;;5066857;28;20382;-86
2022/03/16 01:32:58;;;;;;;7.10;1.70;;;25.70;99.90;;;;;;5066671;28;20462;-80
2022/03/16 01:35:25;;;;;;;7.40;1.70;;;25.50;99.90;;;;;;5066617;28;20373;-78
2022/03/16 01:37:52;;;;;;;4.50;1.50;;;25.40;99.90;;;;;;5066307;28;20889;-83
2022/03/16 01:40:19;;;;;;;5.37;1.50;;;25.40;99.90;;;;;;5066293;28;20440;-80
2022/03/16 01:42:46;;;;;;;4.13;1.83;;;25.60;99.90;;;;;;5066594;28;20366;-80
2022/03/16 01:45:13;;;;;;;7.75;1.95;;;25.60;99.90;;;;;;5066686;28;20402;-84
2022/03/16 01:47:40;;;;;;;5.28;1.70;;;25.60;99.90;;;;;;5066383;28;20914;-80
2022/03/16 01:50:08;;;;;;;7.32;1.75;;;25.10;99.90;;;;;;5066496;28;20374;-84
2022/03/16 01:52:35;;;;;;;5.68;1.90;;;25.00;99.90;;;;;;5048306;28;20740;-83
2022/03/16 01:55:05;;;;;;;5.00;1.90;;;24.90;99.90;;;;;;5066166;28;20378;-83
2022/03/16 01:57:37;;;;;;;5.55;1.90;;;25.10;99.90;;;;;;5066746;28;20519;-83
2022/03/16 02:00:08;;;;;;;4.50;2.00;;;25.80;99.90;;;;;;5070071;28;20754;-81
2022/03/16 02:02:35;;;;;;;6.78;2.10;;;26.20;99.90;;;;;;5070230;28;20402;-80
2022/03/16 02:05:02;;;;;;;5.00;2.00;;;26.50;99.90;;;;;;5070159;28;20401;-86
2022/03/16 02:07:29;;;;;;;7.00;1.90;;;27.20;97.90;;;;;;5070701;28;20374;-87
2022/03/16 02:10:00;;;;;;;6.07;1.83;;;27.20;99.10;;;;;;5070845;28;20734;-85
2022/03/16 02:12:27;;;;;;;4.55;1.90;;;27.30;98.10;;;;;;5071787;28;20366;-85
2022/03/16 02:14:54;;;;;;;5.32;1.90;;;27.70;97.60;;;;;;5071764;28;20412;-79
2022/03/16 02:17:21;;;;;;;4.85;1.85;;;27.90;94.50;;;;;;5078461;28;20362;-76
2022/03/16 02:19:48;;;;;;;5.88;1.90;;;27.40;94.20;;;;;;5063267;28;20416;-78
2022/03/16 02:22:17;;;;;;;4.07;1.90;;;27.30;95.70;;;;;;5079977;28;20384;-79
2022/03/16 02:24:44;;;;;;;6.00;2.27;;;27.10;96.30;;;;;;5073471;28;20454;-83
2022/03/16 02:27:11;;;;;;;9.40;2.13;;;27.00;96.10;;;;;;5069392;28;20370;-81
2022/03/16 02:29:38;;;;;;;5.03;2.10;;;26.90;96.90;;;;;;5069815;28;20382;-80
2022/03/16 02:32:05;;;;;;;6.22;2.30;;;26.50;96.70;;;;;;5069810;28;20711;-81
2022/03/16 02:34:32;;;;;;;6.03;2.38;;;26.00;99.90;;;;;;5068925;28;20374;-81
2022/03/16 02:36:59;;;;;;;5.35;2.20;;;26.00;99.10;;;;;;5069177;28;20457;-86
2022/03/16 02:39:26;;;;;;;8.40;2.55;;;25.80;99.90;;;;;;5069230;28;20397;-87
2022/03/16 02:41:53;;;;;;;5.57;2.28;;;25.60;99.90;;;;;;5069275;28;20382;-84
2022/03/16 02:44:20;;;;;;;6.50;2.30;;;25.70;99.90;;;;;;5068908;28;20370;-79
2022/03/16 02:46:47;;;;;;;6.50;2.17;;;25.90;99.90;;;;;;5069009;28;20845;-80
2022/03/16 02:49:15;;;;;;;4.83;1.80;;;26.00;99.90;;;;;;5066068;28;20790;-79
2022/03/16 02:51:42;;;;;;;4.82;1.70;;;26.60;99.90;;;;;;5068866;28;20405;-80
2022/03/16 02:54:09;;;;;;;6.60;1.60;;;27.00;99.90;;;;;;5068869;28;20370;-80
2022/03/16 02:56:36;;;;;;;4.25;1.58;;;27.30;99.50;;;;;;5068968;28;20719;-79
2022/03/16 02:59:03;;;;;;;3.40;1.48;;;27.40;98.00;;;;;;5068823;28;20390;-79
2022/03/16 03:01:30;;;;;;;3.38;1.55;;;27.30;98.10;;;;;;5069230;28;20378;-78
2022/03/16 03:03:57;;;;;;;4.18;1.50;;;27.10;99.20;;;;;;5068978;28;20371;-84
2022/03/16 03:06:24;;;;;;;3.92;1.40;;;27.10;99.30;;;;;;5069162;28;20395;-85
2022/03/16 03:08:51;;;;;;;3.90;1.70;;;27.80;98.40;;;;;;5068875;28;20374;-79
2022/03/16 03:11:18;;;;;;;5.30;1.40;;;28.90;95.20;;;;;;5068293;28;20386;-78
2022/03/16 03:13:45;;;;;;;3.20;1.52;;;29.80;91.90;;;;;;5068826;28;20373;-79
2022/03/16 03:16:12;;;;;;;3.33;1.50;;;30.70;90.40;;;;;;5068608;28;20374;-84
2022/03/16 03:18:39;;;;;;;3.55;1.50;;;30.30;88.30;;;;;;5068509;28;20897;-85
2022/03/16 03:21:06;;;;;;;6.23;1.60;;;29.90;86.90;;;;;;5068472;28;20394;-85
2022/03/16 03:23:33;;;;;;;5.50;1.60;;;29.70;88.20;;;;;;5068540;28;20366;-82
2022/03/16 03:26:00;;;;;;;4.20;1.40;;;30.00;90.40;;;;;;5068406;28;20417;-82
2022/03/16 03:28:27;;;;;;;4.45;1.65;;;30.30;89.10;;;;;;5068444;28;20809;-86
2022/03/16 03:30:54;;;;;;;5.43;1.80;;;30.20;85.40;;;;;;5068189;28;20474;-87
2022/03/16 03:33:21;;;;;;;5.07;1.52;;;29.70;88.10;;;;;;5068370;28;20366;-80
2022/03/16 03:35:49;;;;;;;4.07;1.60;;;29.50;91.00;;;;;;5038565;28;20380;-86
2022/03/16 03:38:17;;;;;;;3.53;1.60;;;30.00;91.00;;;;;;5064139;28;20394;-81
2022/03/16 03:40:44;;;;;;;3.03;1.60;;;30.80;85.60;;;;;;5050165;28;20765;-87
2022/03/16 03:43:11;;;;;;;3.97;1.60;;;31.50;79.60;;;;;;5067810;28;20370;-87
2022/03/16 03:45:38;;;;;;;3.72;1.50;;;30.80;79.10;;;;;;5049867;28;20436;-82
2022/03/16 03:48:05;;;;;;;4.53;1.73;;;31.10;79.70;;;;;;5067750;28;20375;-84
2022/03/16 03:50:32;;;;;;;6.05;1.98;;;31.50;76.10;;;;;;5067717;28;20383;-78
2022/03/16 03:52:59;;;;;;;3.58;1.70;;;30.80;77.00;;;;;;5067860;28;20390;-80
2022/03/16 03:55:26;;;;;;;4.07;1.60;;;29.90;77.40;;;;;;5067653;28;20813;-78
2022/03/16 03:57:53;;;;;;;3.17;1.65;;;29.20;80.70;;;;;;5067660;28;20428;-79
2022/03/16 04:00:20;;;;;;;4.07;1.70;;;28.80;84.20;;;;;;5067882;28;20822;-86
2022/03/16 04:02:51;;;;;;;3.97;1.70;;;28.30;86.60;;;;;;5067331;28;20366;-83
2022/03/16 04:05:19;;;;;;;3.77;1.70;;;27.50;90.50;;;;;;5067681;28;20794;-80
2022/03/16 04:07:50;;;;;;;4.18;1.60;;;27.10;92.40;;;;;;5067461;28;20469;-85
2022/03/16 04:10:17;;;;;;;4.13;1.65;;;26.80;93.50;;;;;;5057101;28;20395;-83
2022/03/16 04:12:45;;;;;;;4.05;1.38;;;26.50;94.70;;;;;;5047542;28;20368;-80
2022/03/16 04:15:13;;;;;;;3.55;1.50;;;26.30;95.80;;;;;;5047667;28;20372;-87
2022/03/16 04:17:40;;;;;;;3.78;1.40;;;26.00;97.40;;;;;;5047710;28;20878;-80
2022/03/16 04:20:07;;;;;;;3.63;1.60;;;25.70;98.60;;;;;;5047591;28;20959;-85
2022/03/16 04:22:34;;;;;;;3.87;1.40;;;25.40;99.90;;;;;;5047452;28;20395;-85
2022/03/16 04:25:02;;;;;;;3.85;1.58;;;25.00;99.90;;;;;;5058589;28;20480;-78
2022/03/16 04:27:31;;;;;;;3.50;1.60;;;24.80;99.90;;;;;;5067963;28;20378;-82
2022/03/16 04:30:01;;;;;;;3.53;1.63;;;24.50;99.90;;;;;;5062099;28;20400;-87
2022/03/16 04:32:27;;;;;;;3.10;1.70;;;24.30;99.90;;;;;;5068144;28;20374;-88
2022/03/16 04:34:54;;;;;;;4.43;1.70;;;24.20;99.90;;;;;;5067890;28;20465;-83
2022/03/16 04:37:21;;;;;;;4.18;1.80;;;24.10;99.90;;;;;;5072150;28;20449;-84
2022/03/16 04:39:48;;;;;;;5.68;1.80;;;24.00;99.90;;;;;;5051273;28;20412;-79
2022/03/16 04:42:16;;;;;;;4.63;1.70;;;23.80;99.90;;;;;;5048049;28;20434;-85
2022/03/16 04:44:43;;;;;;;4.55;1.70;;;23.80;99.90;;;;;;5060534;28;20412;-79
2022/03/16 04:47:10;;;;;;;6.00;1.90;;;23.80;99.90;;;;;;5069049;28;20377;-80
2022/03/16 04:49:37;;;;;;;7.90;2.17;;;23.90;99.90;;;;;;5068237;28;20378;-84
2022/03/16 04:52:04;;;;;;;7.17;2.07;;;23.90;99.90;;;;;;5067089;28;20426;-77
2022/03/16 04:54:31;;;;;;;9.10;2.10;;;23.90;99.90;;;;;;5067098;28;20370;-84
2022/03/16 04:56:58;;;;;;;6.20;1.90;;;23.70;99.90;;;;;;5064045;28;20427;-81
2022/03/16 04:59:25;;;;;;;8.30;2.13;;;23.40;99.90;;;;;;5057497;28;20405;-74
2022/03/16 05:01:52;;;;;;;7.65;2.17;;;23.10;99.90;;;;;;5066093;28;20400;-83
2022/03/16 05:04:19;;;;;;;6.65;2.15;;;22.90;99.90;;;;;;5064977;28;20382;-75
2022/03/16 05:06:46;;;;;;;10.48;2.45;;;22.80;99.90;;;;;;5064027;28;20446;-76
2022/03/16 05:09:13;;;;;;;10.60;2.40;;;22.60;99.90;;;;;;5054430;28;20385;-76
2022/03/16 05:11:42;;;;;;;9.32;2.58;;;22.50;99.90;;;;;;5065244;28;20393;-76
2022/03/16 05:14:10;;;;;;;8.05;2.40;;;22.50;99.90;;;;;;5062419;28;20880;-75
2022/03/16 05:16:38;;;;;;;11.43;2.55;;;22.40;99.90;;;;;;5047636;28;20393;-77
2022/03/16 05:19:05;;;;;;;8.70;2.60;;;22.30;99.90;;;;;;5064776;28;20900;-77
2022/03/16 05:21:32;;;;;;;9.07;2.60;;;22.20;99.90;;;;;;5065452;28;20382;-80
2022/03/16 05:23:59;;;;;;;7.40;2.20;;;22.20;99.90;;;;;;5065449;28;20386;-83
2022/03/16 05:26:26;;;;;;;7.47;2.40;;;22.20;99.90;;;;;;5047943;28;20399;-87
2022/03/16 05:28:53;;;;;;;7.30;2.17;;;22.20;99.90;;;;;;5049078;28;20417;-83
2022/03/16 05:31:21;;;;;;;7.43;2.27;;;22.20;99.90;;;;;;5066494;28;20378;-79
2022/03/16 05:33:49;;;;;;;7.07;2.17;;;22.20;99.90;;;;;;5068636;28;20420;-79
2022/03/16 05:36:16;;;;;;;8.15;2.10;;;22.20;99.90;;;;;;5064958;28;20469;-80
2022/03/16 05:38:43;;;;;;;8.23;2.10;;;22.20;99.90;;;;;;5052228;28;20387;-78
2022/03/16 05:41:11;;;;;;;6.00;2.00;;;22.20;99.90;;;;;;5050163;28;20713;-83
2022/03/16 05:43:38;;;;;;;5.38;1.52;;;22.30;99.90;;;;;;5068911;28;20919;-85
2022/03/16 05:46:05;;;;;;;6.22;1.60;;;22.30;99.90;;;;;;5068898;28;20410;-80
2022/03/16 05:48:32;;;;;;;6.25;1.70;;;22.20;99.90;;;;;;5069575;28;20457;-76
2022/03/16 05:50:59;;;;;;;6.03;1.70;;;22.20;99.90;;;;;;5069178;28;20425;-76
2022/03/16 05:53:26;;;;;;;5.60;1.90;;;22.30;99.90;;;;;;5069712;28;20386;-82
2022/03/16 05:55:53;;;;;;;6.15;1.90;;;22.30;99.90;;;;;;5068664;28;20478;-83
2022/03/16 05:58:21;;;;;;;7.82;4.93;;;22.40;99.90;;;;;;5064324;28;20384;-78
2022/03/16 06:00:49;;;;;;;12.27;7.93;;;22.40;99.90;;;;;;5025834;28;20431;-84
2022/03/16 06:03:16;;;;;;;8.30;4.13;;;22.50;99.90;;;;;;5066112;28;20378;-85
2022/03/16 06:05:43;;;;;;;5.30;2.33;;;22.60;99.90;;;;;;5062416;28;20439;-85
2022/03/16 06:08:10;;;;;;;6.32;1.65;;;22.70;99.90;;;;;;5049933;28;20400;-80
2022/03/16 06:10:39;;;;;;;5.30;1.50;;;22.90;99.90;;;;;;5052531;28;20382;-83
2022/03/16 06:13:06;;;;;;;6.38;1.80;;;23.00;99.90;;;;;;5067871;28;20389;-79
2022/03/16 06:15:42;;;;;;;8.95;4.28;;;23.00;99.90;;;;;;5066862;28;20462;-84
2022/03/16 06:18:11;;;;;;;18.13;11.88;;;23.10;99.90;;;;;;5069406;28;20382;-78
2022/03/16 06:20:38;;;;;;;64.10;42.60;;;23.10;99.90;;;;;;5051043;28;20465;-82
2022/03/16 06:23:06;;;;;;;37.53;29.63;;;23.30;99.90;;;;;;5068480;28;20793;-78
2022/03/16 06:25:34;;;;;;;48.17;32.05;;;23.30;99.90;;;;;;5069285;28;20443;-85
2022/03/16 06:28:01;;;;;;;10.93;5.55;;;23.50;99.90;;;;;;5068103;28;20390;-78
2022/03/16 06:30:28;;;;;;;8.55;2.95;;;23.60;99.90;;;;;;5069109;28;20440;-78
2022/03/16 06:32:55;;;;;;;8.27;2.23;;;23.70;99.90;;;;;;5067510;28;20409;-81
2022/03/16 06:35:23;;;;;;;8.00;2.67;;;23.80;99.90;;;;;;5075096;28;20492;-82
2022/03/16 06:37:50;;;;;;;8.52;3.90;;;23.80;99.90;;;;;;5068723;28;20386;-82
2022/03/16 06:40:17;;;;;;;10.15;4.10;;;23.80;99.90;;;;;;5068658;28;20743;-79
2022/03/16 06:42:56;;;;;;;8.02;3.33;;;23.90;99.90;;;;;;5068345;28;20377;-82
2022/03/16 06:45:25;;;;;;;8.05;2.50;;;23.90;99.90;;;;;;5067151;28;20398;-80
2022/03/16 06:47:55;;;;;;;6.50;2.03;;;23.80;99.90;;;;;;5058455;28;20504;-92
2022/03/16 06:50:22;;;;;;;6.65;1.92;;;23.70;99.90;;;;;;5049514;28;20731;-81
2022/03/16 06:52:50;;;;;;;5.03;1.70;;;23.60;99.90;;;;;;5067287;28;20394;-82
2022/03/16 06:55:17;;;;;;;7.22;1.90;;;23.50;99.90;;;;;;5067922;28;20404;-82
2022/03/16 06:57:44;;;;;;;6.80;2.08;;;23.50;99.90;;;;;;5067819;28;20387;-84
2022/03/16 07:00:13;;;;;;;6.53;1.90;;;23.40;99.90;;;;;;5067343;28;20463;-75
2022/03/16 07:03:00;;;;;;;5.47;1.85;;;23.60;99.90;;;;;;5066568;28;20739;-80
2022/03/16 07:05:35;;;;;;;7.97;2.03;;;23.80;99.90;;;;;;5067113;28;20390;-79
2022/03/16 07:08:10;;;;;;;6.00;1.65;;;23.90;99.90;;;;;;5062767;28;20390;-83
2022/03/16 07:10:41;;;;;;;7.18;2.00;;;23.90;99.90;;;;;;5067980;28;20846;-79
2022/03/16 07:13:09;;;;;;;7.45;1.90;;;24.00;99.90;;;;;;5066727;28;20386;-77
2022/03/16 07:15:38;;;;;;;5.35;1.88;;;24.10;99.90;;;;;;5067545;28;20430;-77
2022/03/16 07:18:05;;;;;;;6.72;2.08;;;24.20;99.90;;;;;;5068703;28;20393;-78
2022/03/16 07:20:33;;;;;;;8.88;2.15;;;24.20;99.90;;;;;;5067377;28;20536;-81
2022/03/16 07:23:14;;;;;;;7.33;2.10;;;24.00;99.90;;;;;;5067339;28;20400;-85
2022/03/16 07:25:43;;;;;;;8.82;1.98;;;24.10;99.90;;;;;;5068050;28;20393;-78
2022/03/16 07:28:11;;;;;;;6.90;2.10;;;24.20;99.90;;;;;;5068114;28;20790;-78
2022/03/16 07:30:42;;;;;;;7.20;2.03;;;24.40;99.90;;;;;;5069791;28;20378;-80
2022/03/16 07:33:10;;;;;;;5.63;1.80;;;24.70;99.90;;;;;;5060600;28;20378;-81
2022/03/16 07:35:39;;;;;;;8.43;2.20;;;24.80;99.90;;;;;;5068107;28;20393;-77
2022/03/16 07:38:07;;;;;;;9.35;2.30;;;24.80;99.90;;;;;;5064406;28;20500;-78
2022/03/16 07:40:35;;;;;;;7.18;2.15;;;24.50;99.90;;;;;;5067746;28;20406;-76
2022/03/16 07:43:03;;;;;;;8.20;2.30;;;24.50;99.90;;;;;;5067371;28;20374;-82
2022/03/16 07:45:30;;;;;;;7.88;2.20;;;24.40;99.90;;;;;;5063226;28;20441;-77
2022/03/16 07:47:57;;;;;;;6.33;2.07;;;24.30;99.90;;;;;;5067950;28;20431;-85
2022/03/16 07:50:26;;;;;;;7.68;2.08;;;24.10;99.90;;;;;;5067358;28;20389;-77
2022/03/16 07:52:53;;;;;;;7.15;2.15;;;23.90;99.90;;;;;;5059340;28;20485;-84
2022/03/16 07:55:20;;;;;;;10.27;2.22;;;23.70;99.90;;;;;;5052772;28;20387;-83
2022/03/16 07:57:50;;;;;;;7.07;1.92;;;23.60;99.90;;;;;;5052706;28;20388;-75
2022/03/16 08:00:18;;;;;;;8.07;2.20;;;24.70;99.90;;;;;;5034967;28;20426;-76
2022/03/16 08:02:45;;;;;;;7.20;2.15;;;23.20;99.90;;;;;;5058149;28;20422;-77
2022/03/16 08:05:14;;;;;;;8.30;2.35;;;23.00;99.90;;;;;;5065223;28;20390;-88
2022/03/16 08:07:42;;;;;;;8.27;2.35;;;22.90;99.90;;;;;;5067102;28;20386;-86
2022/03/16 08:10:09;;;;;;;8.57;2.40;;;22.80;99.90;;;;;;5066645;28;20867;-76
2022/03/16 08:12:36;;;;;;;9.77;2.70;;;22.70;99.90;;;;;;5064896;28;20795;-82
2022/03/16 08:15:07;;;;;;;11.05;2.60;;;22.50;99.90;;;;;;5059933;28;20427;-84
2022/03/16 08:17:34;;;;;;;12.40;2.70;;;22.40;99.90;;;;;;5067683;28;20389;-87
2022/03/16 08:20:01;;;;;;;12.18;2.35;;;22.20;99.90;;;;;;5048026;28;20413;-86
2022/03/16 08:22:37;;;;;;;9.13;2.22;;;22.10;99.90;;;;;;5056908;28;20405;-81
2022/03/16 08:25:07;;;;;;;10.97;2.67;;;21.90;99.90;;;;;;5052985;28;20885;-76
2022/03/16 08:27:35;;;;;;;13.57;2.60;;;21.80;99.90;;;;;;5061266;28;20378;-76
2022/03/16 08:30:03;;;;;;;11.25;2.67;;;21.70;99.90;;;;;;5068691;28;20398;-84
2022/03/16 08:32:30;;;;;;;8.55;2.47;;;21.70;99.90;;;;;;5068219;28;20516;-84
2022/03/16 08:34:57;;;;;;;12.98;2.60;;;21.60;99.90;;;;;;5067837;28;20390;-81
2022/03/16 08:37:24;;;;;;;12.52;2.63;;;21.50;99.90;;;;;;5070837;28;20384;-80
2022/03/16 08:39:52;;;;;;;11.18;2.47;;;21.40;99.90;;;;;;5075154;28;20409;-81
2022/03/16 08:42:19;;;;;;;10.48;2.58;;;21.40;99.90;;;;;;5072687;28;20393;-77
2022/03/16 08:44:46;;;;;;;12.70;2.60;;;21.30;99.90;;;;;;5055620;28;20395;-74
2022/03/16 08:47:18;;;;;;;9.73;2.60;;;21.30;99.90;;;;;;5059527;28;20411;-81
2022/03/16 08:49:46;;;;;;;11.55;2.58;;;21.30;99.90;;;;;;5067194;28;20440;-85
2022/03/16 08:52:13;;;;;;;12.50;2.78;;;21.30;99.90;;;;;;5049869;28;20386;-79
2022/03/16 08:54:41;;;;;;;13.43;3.00;;;21.20;99.90;;;;;;5068459;28;20408;-76
2022/03/16 08:57:09;;;;;;;12.23;4.30;;;21.20;99.90;;;;;;5065568;28;20837;-87
2022/03/16 08:59:39;;;;;;;12.60;4.32;;;21.10;99.90;;;;;;5067230;28;20485;-88
2022/03/16 09:02:07;;;;;;;15.05;4.32;;;21.10;99.90;;;;;;5048311;28;20425;-79
2022/03/16 09:04:34;;;;;;;13.25;3.83;;;21.00;99.90;;;;;;5057131;28;20388;-85
2022/03/16 09:07:04;;;;;;;14.23;4.00;;;20.90;99.90;;;;;;5051107;28;20378;-81
2022/03/16 09:09:31;;;;;;;14.27;3.00;;;20.90;99.90;;;;;;5054797;28;20738;-74
2022/03/16 09:11:58;;;;;;;14.23;3.15;;;20.90;99.90;;;;;;5064252;28;20958;-89
2022/03/16 09:14:25;;;;;;;15.70;3.10;;;20.80;99.90;;;;;;5072709;28;20413;-79
2022/03/16 09:16:52;;;;;;;12.55;2.90;;;20.80;99.90;;;;;;5065614;28;20371;-81
2022/03/16 09:19:22;;;;;;;14.87;2.83;;;20.80;99.90;;;;;;5048160;28;20416;-80
2022/03/16 09:21:50;;;;;;;11.82;3.00;;;20.70;99.90;;;;;;5065850;28;20437;-83
2022/03/16 09:24:19;;;;;;;13.27;2.80;;;20.70;99.90;;;;;;5072203;28;20427;-84
2022/03/16 09:26:46;;;;;;;13.27;3.00;;;20.60;99.90;;;;;;5058593;28;20407;-80
2022/03/16 09:29:13;;;;;;;17.45;3.08;;;20.60;99.90;;;;;;5072547;28;20378;-78
2022/03/16 09:31:43;;;;;;;18.10;3.15;;;20.60;99.90;;;;;;5073425;28;20382;-81
2022/03/16 09:34:10;;;;;;;14.27;3.00;;;20.50;99.90;;;;;;5057847;28;20438;-76
2022/03/16 09:36:39;;;;;;;13.27;3.17;;;20.50;99.90;;;;;;5072329;28;20401;-78
2022/03/16 09:39:06;;;;;;;13.70;2.90;;;20.50;99.90;;;;;;5069502;28;20427;-75
2022/03/16 09:41:33;;;;;;;13.65;3.05;;;20.60;99.90;;;;;;5070735;28;20389;-75
2022/03/16 09:44:01;;;;;;;11.73;2.60;;;20.50;99.90;;;;;;5072652;28;20416;-82
2022/03/16 09:46:32;;;;;;;13.23;2.90;;;20.50;99.90;;;;;;5072668;28;20502;-81
2022/03/16 09:49:00;;;;;;;11.57;2.65;;;20.40;99.90;;;;;;5072936;28;20801;-79
2022/03/16 09:51:34;;;;;;;11.98;2.63;;;20.40;99.90;;;;;;5072905;28;20419;-77
2022/03/16 09:54:02;;;;;;;12.57;2.70;;;20.40;99.90;;;;;;5072499;28;20382;-77
2022/03/16 09:56:30;;;;;;;12.40;2.80;;;20.30;99.90;;;;;;5058694;28;20899;-84
2022/03/16 09:58:57;;;;;;;15.05;2.88;;;20.30;99.90;;;;;;5072053;28;20374;-76
2022/03/16 10:01:25;;;;;;;14.90;3.20;;;20.30;99.90;;;;;;5062193;28;21228;-84
2022/03/16 10:03:59;;;;;;;16.83;3.45;;;20.30;99.90;;;;;;5058389;28;20382;-75
2022/03/16 10:06:27;;;;;;;16.10;3.67;;;20.30;99.90;;;;;;5073192;28;20471;-76
2022/03/16 10:14:24;;;;;;;16.73;4.97;;;20.30;99.90;;;;;;5055859;28;20400;-79
2022/03/16 10:19:50;;;;;;;18.75;7.10;;;20.20;99.90;;;;;;5071076;28;20837;-80
2022/03/16 10:22:27;;;;;;;20.15;7.40;;;20.20;99.90;;;;;;5069190;28;20443;-76
2022/03/16 10:25:02;;;;;;;18.92;6.90;;;20.20;99.90;;;;;;5070021;28;20366;-79
2022/03/16 10:27:30;;;;;;;19.67;6.30;;;20.20;99.90;;;;;;5069527;28;20382;-76
2022/03/16 10:29:57;;;;;;;18.27;5.80;;;20.10;99.90;;;;;;5058143;28;20452;-78
2022/03/16 10:32:25;;;;;;;15.40;4.53;;;20.10;99.90;;;;;;5049718;28;20399;-77
2022/03/16 10:34:56;;;;;;;14.85;4.72;;;20.10;99.90;;;;;;5049170;28;20379;-77
2022/03/16 10:37:24;;;;;;;18.23;5.03;;;20.10;99.90;;;;;;5048762;28;20435;-76
2022/03/16 10:39:53;;;;;;;19.60;5.05;;;20.00;99.90;;;;;;5047266;28;20411;-77
2022/03/16 10:48:25;;;;;;;14.52;4.40;;;20.00;99.90;;;;;;5064698;28;20417;-81
2022/03/16 10:51:03;;;;;;;14.98;4.28;;;20.00;99.90;;;;;;5061109;28;20393;-83
2022/03/16 10:53:31;;;;;;;15.85;4.60;;;20.00;99.90;;;;;;5069191;28;20568;-76
2022/03/16 10:56:02;;;;;;;19.20;4.82;;;19.90;99.90;;;;;;5064652;28;20778;-75
2022/03/16 10:58:31;;;;;;;17.75;3.88;;;19.90;99.90;;;;;;5069148;28;20777;-76
2022/03/16 11:00:59;;;;;;;13.35;3.30;;;20.00;99.90;;;;;;5059774;28;20509;-75
2022/03/16 11:03:29;;;;;;;14.05;3.42;;;19.90;99.90;;;;;;5049495;28;20379;-80
2022/03/16 11:05:57;;;;;;;14.93;2.90;;;19.90;99.90;;;;;;5053260;28;20390;-76
2022/03/16 11:08:25;;;;;;;15.93;3.42;;;19.90;99.90;;;;;;5069775;28;20366;-75
2022/03/16 11:10:52;;;;;;;13.10;3.30;;;19.80;99.90;;;;;;5068722;28;20386;-77
2022/03/16 11:13:28;;;;;;;14.10;3.20;;;19.80;99.90;;;;;;5068620;28;20410;-80
2022/03/16 11:15:57;;;;;;;14.77;3.05;;;19.80;99.90;;;;;;5062747;28;20420;-79
2022/03/16 11:18:25;;;;;;;15.75;3.35;;;19.80;99.90;;;;;;5060436;28;20388;-79
2022/03/16 11:20:59;;;;;;;14.63;3.40;;;19.90;99.90;;;;;;5060902;28;20937;-75
2022/03/16 11:26:44;;;;;;;14.60;3.10;;;19.70;99.90;;;;;;5067704;28;20425;-76
2022/03/16 11:29:48;;;;;;;14.93;3.17;;;19.70;99.90;;;;;;5059004;28;20555;-78
2022/03/16 11:32:17;;;;;;;16.42;3.20;;;19.80;99.90;;;;;;5065412;28;20400;-84
2022/03/16 11:35:00;;;;;;;16.48;3.17;;;19.70;99.90;;;;;;5056540;28;20382;-86
2022/03/16 11:37:37;;;;;;;17.65;3.38;;;19.70;99.90;;;;;;5056553;28;20470;-76
2022/03/16 11:40:11;;;;;;;18.50;3.38;;;19.60;99.90;;;;;;5068766;28;20402;-87
2022/03/16 11:43:05;;;;;;;17.98;3.33;;;19.60;99.90;;;;;;5068232;28;20373;-75
2022/03/16 11:45:41;;;;;;;14.82;3.00;;;19.40;99.90;;;;;;5062285;28;20387;-77
2022/03/16 11:51:14;;;;;;;14.18;2.70;;;19.30;99.90;;;;;;5062745;28;20449;-81
2022/03/16 11:56:24;;;;;;;13.73;2.78;;;19.30;99.90;;;;;;5063428;28;20383;-82
2022/03/16 11:58:55;;;;;;;15.60;2.93;;;19.40;99.90;;;;;;5060241;28;20382;-80
2022/03/16 12:01:28;;;;;;;12.18;3.03;;;19.30;99.90;;;;;;5066421;28;20409;-85
2022/03/16 12:04:42;;;;;;;11.75;2.90;;;19.40;99.90;;;;;;5067506;28;20454;-84
2022/03/16 12:07:11;;;;;;;12.25;2.92;;;19.40;99.90;;;;;;5063976;28;20485;-77
2022/03/16 12:10:06;;;;;;;13.23;2.80;;;19.40;99.90;;;;;;5067482;28;20370;-78
2022/03/16 12:12:57;;;;;;;15.98;3.50;;;19.30;99.90;;;;;;5066380;28;20723;-77
2022/03/16 12:15:32;;;;;;;18.83;3.30;;;19.20;99.90;;;;;;5047291;28;20398;-75
2022/03/16 12:17:59;;;;;;;13.60;2.90;;;19.20;99.90;;;;;;5053437;28;20393;-75
2022/03/16 12:20:30;;;;;;;15.40;3.15;;;19.10;99.90;;;;;;5053474;28;20404;-80
2022/03/16 12:23:09;;;;;;;13.13;3.00;;;19.10;99.90;;;;;;5060801;28;20370;-87
2022/03/16 12:25:40;;;;;;;14.93;2.80;;;19.20;99.90;;;;;;5067332;28;20456;-77
2022/03/16 12:31:03;;;;;;;12.48;2.85;;;19.20;99.90;;;;;;5047311;28;20383;-79
2022/03/16 12:33:34;;;;;;;13.47;2.80;;;19.20;99.90;;;;;;5046793;28;20717;-75
2022/03/16 12:36:03;;;;;;;13.93;3.03;;;19.20;99.90;;;;;;5047094;28;20478;-80
2022/03/16 12:38:32;;;;;;;14.88;2.83;;;19.20;99.90;;;;;;5050530;28;20431;-85
2022/03/16 12:43:47;;;;;;;13.38;2.90;;;19.30;99.90;;;;;;5066422;28;20380;-86
2022/03/16 12:46:53;;;;;;;15.85;3.03;;;19.30;99.90;;;;;;5061130;28;20875;-82
2022/03/16 12:49:22;;;;;;;13.38;2.97;;;19.40;99.90;;;;;;5072205;28;20890;-76
2022/03/16 12:51:52;;;;;;;16.70;3.25;;;19.40;99.90;;;;;;5059068;28;20411;-76
2022/03/16 12:54:36;;;;;;;16.30;3.60;;;19.30;99.90;;;;;;5066198;28;20390;-82
2022/03/16 12:57:08;;;;;;;14.27;3.40;;;19.40;99.90;;;;;;5065963;28;20461;-85
2022/03/16 12:59:47;;;;;;;17.50;3.92;;;19.40;99.90;;;;;;5066338;28;20410;-77
2022/03/16 13:02:18;;;;;;;14.13;3.72;;;19.40;99.90;;;;;;5065450;28;20394;-77
2022/03/16 13:04:51;;;;;;;20.17;3.90;;;19.50;99.90;;;;;;5066497;28;20440;-81
2022/03/16 13:07:20;;;;;;;14.52;3.10;;;19.50;99.90;;;;;;5066372;28;20463;-76
2022/03/16 13:09:47;;;;;;;16.83;3.38;;;19.50;99.90;;;;;;5066428;28;20402;-80
2022/03/16 13:12:17;;;;;;;15.40;3.53;;;19.30;99.90;;;;;;5066399;28;20386;-81
2022/03/16 13:14:46;;;;;;;17.48;3.42;;;19.30;99.90;;;;;;5066159;28;20381;-82
2022/03/16 13:17:15;;;;;;;20.30;3.95;;;19.20;99.90;;;;;;5063838;28;20399;-85
2022/03/16 13:19:49;;;;;;;16.83;4.13;;;19.20;99.90;;;;;;5065939;28;20520;-86
2022/03/16 13:22:22;;;;;;;21.33;4.40;;;19.10;99.90;;;;;;5064781;28;20401;-79